Řízení letového provozu České republiky
Letiste: LKKU Aktualizace: 19.02.2018 12:03:26  UTC
 METAR LKKU 19.02. 12:00 ...
METAR LKKU 191200Z 01001KT 9999 FEW030 02/M05 Q1022 RMK REG QNH 1014=